East Aurora, NY (14052)

11:39 AM EST on December 25, 2014 (GMT -0500)
Historic Village of East Aurora | Change Station
CLOSE
Current Station
Personal Weather Station
Location: East Aurora, NY
Elevation: 919 ft
Nearby Weather Stations

Elev 919 ft 42.77 °N, 78.63 °W | Updated 1 minute ago

Overcast
Overcast
39.6 °F
Feels Like 33 °F
N
9.8
Wind Variable Wind from SW

Today
High -- | Low -- °F
--% Chance of Precip.
Yesterday
High -- | Low -- °F
Precip. -- in
7:43 AM 4:45 PM
Waxing Crescent, 17% visible
Pressure 29.77 in
Visibility 10.0 miles
Clouds Mostly Cloudy 1700 ft
Overcast 2200 ft
Windchill 33 °F
Dew Point 36 °F
Humidity 86%
Rainfall 0.05 in
Snow Depth Not available.
UV 1 out of 12
Pollen .10 out of 12
Air Quality Not available.
Flu Activity Not available.
METAR KBUF 251554Z 25018G31KT 10SM BKN017 OVC022 04/01 A2976 RMK AO2 PK WND 25036/1502 SLP081 T00440011

More Conditions Fewer Conditions

Pressure 29.77 in
Visibility 10.0 miles
Clouds Mostly Cloudy 1700 ft
Overcast 2200 ft
Windchill 33 °F
Dew Point 36 °F
Humidity 86%
Rainfall 0.05 in
Snow Depth Not available.
UV 1 out of 12
Pollen .10 out of 12
Air Quality Not available.
Flu Activity Not available.
METAR KBUF 251554Z 25018G31KT 10SM BKN017 OVC022 04/01 A2976 RMK AO2 PK WND 25036/1502 SLP081 T00440011

More Conditions Fewer Conditions

10-Day Weather Forecast

Almanac

Astronomy

Dec. 25, 2014 Rise Set
Actual Time
Civil Twilight
Nautical Twilight
Astronomical Twilight
Moon
Length of Visible Light
Length of Day
Tomorrow will be .
, % of the Moon is Illuminated

Today's Extremes

State Highs State Lows

Community

WunderPhotos

Upload Photos

1,780,336 photos uploaded!

WunderBlogs® & News

Nearby

Air Quality

  Air Quality AQ Index Pollutant
Not available.

Snow Depth

Station Depth Elevation

Earthquake Activity

City Distance Mag. Time & Date
Minimum magnitude displayed is 2.5.

Coastal Water Temperatures

Place Temperature

Nearby Weather Stations